sensor_id;sensor_type;location;lat;lon;timestamp;temperature;humidity
25352;DHT22;13304;48.464;8.712;2022-08-05T00:00:02;26.80;43.40
25352;DHT22;13304;48.464;8.712;2022-08-05T00:02:28;26.70;43.50
25352;DHT22;13304;48.464;8.712;2022-08-05T00:04:54;26.70;43.50
25352;DHT22;13304;48.464;8.712;2022-08-05T00:07:20;26.60;43.50
25352;DHT22;13304;48.464;8.712;2022-08-05T00:09:45;26.60;43.50
25352;DHT22;13304;48.464;8.712;2022-08-05T00:12:11;26.50;43.80
25352;DHT22;13304;48.464;8.712;2022-08-05T00:14:37;26.50;43.90
25352;DHT22;13304;48.464;8.712;2022-08-05T00:17:03;26.50;44.10
25352;DHT22;13304;48.464;8.712;2022-08-05T00:19:29;26.40;44.00
25352;DHT22;13304;48.464;8.712;2022-08-05T00:21:55;26.40;44.10
25352;DHT22;13304;48.464;8.712;2022-08-05T00:24:20;26.40;44.10
25352;DHT22;13304;48.464;8.712;2022-08-05T00:26:46;26.30;44.10
25352;DHT22;13304;48.464;8.712;2022-08-05T00:29:12;26.30;44.30
25352;DHT22;13304;48.464;8.712;2022-08-05T00:31:38;26.30;44.30
25352;DHT22;13304;48.464;8.712;2022-08-05T00:34:04;26.30;44.30
25352;DHT22;13304;48.464;8.712;2022-08-05T00:36:30;26.30;44.40
25352;DHT22;13304;48.464;8.712;2022-08-05T00:38:55;26.30;45.00
25352;DHT22;13304;48.464;8.712;2022-08-05T00:41:29;26.30;44.60
25352;DHT22;13304;48.464;8.712;2022-08-05T00:43:56;26.20;44.80
25352;DHT22;13304;48.464;8.712;2022-08-05T00:46:21;26.20;44.80
25352;DHT22;13304;48.464;8.712;2022-08-05T00:48:47;26.30;45.30
25352;DHT22;13304;48.464;8.712;2022-08-05T00:51:13;26.20;45.50
25352;DHT22;13304;48.464;8.712;2022-08-05T00:53:40;26.20;45.30
25352;DHT22;13304;48.464;8.712;2022-08-05T00:56:06;26.20;45.20
25352;DHT22;13304;48.464;8.712;2022-08-05T00:58:32;26.10;45.20
25352;DHT22;13304;48.464;8.712;2022-08-05T01:00:58;26.20;45.40
25352;DHT22;13304;48.464;8.712;2022-08-05T01:03:24;26.10;45.40
25352;DHT22;13304;48.464;8.712;2022-08-05T01:05:53;26.10;45.60
25352;DHT22;13304;48.464;8.712;2022-08-05T01:08:19;26.10;46.00
25352;DHT22;13304;48.464;8.712;2022-08-05T01:10:57;26.10;45.90
25352;DHT22;13304;48.464;8.712;2022-08-05T01:13:35;26.00;46.30
25352;DHT22;13304;48.464;8.712;2022-08-05T01:16:04;26.00;46.50
25352;DHT22;13304;48.464;8.712;2022-08-05T01:18:35;25.80;46.10
25352;DHT22;13304;48.464;8.712;2022-08-05T01:24:20;25.80;46.10
25352;DHT22;13304;48.464;8.712;2022-08-05T01:29:57;25.70;46.10
25352;DHT22;13304;48.464;8.712;2022-08-05T01:32:26;25.70;46.00
25352;DHT22;13304;48.464;8.712;2022-08-05T01:35:02;25.70;46.50
25352;DHT22;13304;48.464;8.712;2022-08-05T01:40:04;25.60;47.00
25352;DHT22;13304;48.464;8.712;2022-08-05T01:42:31;25.60;47.00
25352;DHT22;13304;48.464;8.712;2022-08-05T01:45:00;25.50;47.00
25352;DHT22;13304;48.464;8.712;2022-08-05T01:47:27;25.50;47.60
25352;DHT22;13304;48.464;8.712;2022-08-05T01:49:57;25.50;48.50
25352;DHT22;13304;48.464;8.712;2022-08-05T01:52:24;25.50;47.60
25352;DHT22;13304;48.464;8.712;2022-08-05T01:55:00;25.40;47.30
25352;DHT22;13304;48.464;8.712;2022-08-05T01:57:30;25.40;47.70
25352;DHT22;13304;48.464;8.712;2022-08-05T02:00:00;25.40;47.80
25352;DHT22;13304;48.464;8.712;2022-08-05T02:02:28;25.30;47.90
25352;DHT22;13304;48.464;8.712;2022-08-05T02:05:00;25.30;47.90
25352;DHT22;13304;48.464;8.712;2022-08-05T02:07:29;25.20;47.60
25352;DHT22;13304;48.464;8.712;2022-08-05T02:09:56;25.30;47.90
25352;DHT22;13304;48.464;8.712;2022-08-05T02:15:21;25.20;47.80
25352;DHT22;13304;48.464;8.712;2022-08-05T02:17:57;25.20;48.10
25352;DHT22;13304;48.464;8.712;2022-08-05T02:20:29;25.10;48.10
25352;DHT22;13304;48.464;8.712;2022-08-05T02:22:59;25.10;48.20
25352;DHT22;13304;48.464;8.712;2022-08-05T02:25:31;25.10;48.40
25352;DHT22;13304;48.464;8.712;2022-08-05T02:27:59;25.00;48.60
25352;DHT22;13304;48.464;8.712;2022-08-05T02:30:31;25.10;48.50
25352;DHT22;13304;48.464;8.712;2022-08-05T02:33:01;25.00;48.40
25352;DHT22;13304;48.464;8.712;2022-08-05T02:35:27;25.00;48.70
25352;DHT22;13304;48.464;8.712;2022-08-05T02:37:55;25.00;48.80
25352;DHT22;13304;48.464;8.712;2022-08-05T02:40:23;25.00;49.10
25352;DHT22;13304;48.464;8.712;2022-08-05T02:42:51;24.90;48.90
25352;DHT22;13304;48.464;8.712;2022-08-05T02:45:18;24.90;48.80
25352;DHT22;13304;48.464;8.712;2022-08-05T02:47:45;24.90;48.90
25352;DHT22;13304;48.464;8.712;2022-08-05T02:50:12;24.90;48.90
25352;DHT22;13304;48.464;8.712;2022-08-05T02:52:40;24.80;48.80
25352;DHT22;13304;48.464;8.712;2022-08-05T02:55:07;24.80;48.90
25352;DHT22;13304;48.464;8.712;2022-08-05T02:57:34;24.80;49.20
25352;DHT22;13304;48.464;8.712;2022-08-05T03:00:04;24.80;49.40
25352;DHT22;13304;48.464;8.712;2022-08-05T03:02:33;24.70;49.40
25352;DHT22;13304;48.464;8.712;2022-08-05T03:05:02;24.70;49.40
25352;DHT22;13304;48.464;8.712;2022-08-05T03:07:29;24.70;49.50
25352;DHT22;13304;48.464;8.712;2022-08-05T03:09:55;24.70;49.50
25352;DHT22;13304;48.464;8.712;2022-08-05T03:12:36;24.70;50.00
25352;DHT22;13304;48.464;8.712;2022-08-05T03:15:04;24.60;50.30
25352;DHT22;13304;48.464;8.712;2022-08-05T03:17:30;24.60;50.00
25352;DHT22;13304;48.464;8.712;2022-08-05T03:19:56;24.60;50.00
25352;DHT22;13304;48.464;8.712;2022-08-05T03:22:23;24.60;50.10
25352;DHT22;13304;48.464;8.712;2022-08-05T03:24:50;24.60;50.20
25352;DHT22;13304;48.464;8.712;2022-08-05T03:27:16;24.60;50.20
25352;DHT22;13304;48.464;8.712;2022-08-05T03:29:42;24.60;50.20
25352;DHT22;13304;48.464;8.712;2022-08-05T03:32:08;24.50;50.00
25352;DHT22;13304;48.464;8.712;2022-08-05T03:34:35;24.50;50.10
25352;DHT22;13304;48.464;8.712;2022-08-05T03:37:01;24.50;50.30
25352;DHT22;13304;48.464;8.712;2022-08-05T03:39:27;24.50;50.50
25352;DHT22;13304;48.464;8.712;2022-08-05T03:41:54;24.40;50.40
25352;DHT22;13304;48.464;8.712;2022-08-05T03:44:20;24.40;50.40
25352;DHT22;13304;48.464;8.712;2022-08-05T03:46:46;24.40;50.40
25352;DHT22;13304;48.464;8.712;2022-08-05T03:49:12;24.40;50.50
25352;DHT22;13304;48.464;8.712;2022-08-05T03:51:41;24.30;50.50
25352;DHT22;13304;48.464;8.712;2022-08-05T03:54:13;24.30;50.70
25352;DHT22;13304;48.464;8.712;2022-08-05T03:56:43;24.30;50.80
25352;DHT22;13304;48.464;8.712;2022-08-05T03:59:15;24.30;50.90
25352;DHT22;13304;48.464;8.712;2022-08-05T04:01:45;24.30;51.00
25352;DHT22;13304;48.464;8.712;2022-08-05T04:04:14;24.20;51.20
25352;DHT22;13304;48.464;8.712;2022-08-05T04:06:41;24.20;51.10
25352;DHT22;13304;48.464;8.712;2022-08-05T04:09:07;24.20;51.20
25352;DHT22;13304;48.464;8.712;2022-08-05T04:11:36;24.20;51.30
25352;DHT22;13304;48.464;8.712;2022-08-05T04:14:03;24.20;51.40
25352;DHT22;13304;48.464;8.712;2022-08-05T04:16:31;24.20;51.30
25352;DHT22;13304;48.464;8.712;2022-08-05T04:18:57;24.20;51.40
25352;DHT22;13304;48.464;8.712;2022-08-05T04:21:22;24.20;51.60
25352;DHT22;13304;48.464;8.712;2022-08-05T04:23:49;24.10;51.70
25352;DHT22;13304;48.464;8.712;2022-08-05T04:26:15;24.10;51.90
25352;DHT22;13304;48.464;8.712;2022-08-05T04:28:41;24.10;51.80
25352;DHT22;13304;48.464;8.712;2022-08-05T04:31:06;24.10;51.90
25352;DHT22;13304;48.464;8.712;2022-08-05T04:33:32;24.00;51.80
25352;DHT22;13304;48.464;8.712;2022-08-05T04:35:58;24.00;51.70
25352;DHT22;13304;48.464;8.712;2022-08-05T04:38:24;24.00;51.70
25352;DHT22;13304;48.464;8.712;2022-08-05T04:40:49;24.00;51.80
25352;DHT22;13304;48.464;8.712;2022-08-05T04:43:15;24.00;52.00
25352;DHT22;13304;48.464;8.712;2022-08-05T04:45:41;24.00;52.10
25352;DHT22;13304;48.464;8.712;2022-08-05T04:48:12;24.00;52.20
25352;DHT22;13304;48.464;8.712;2022-08-05T04:50:44;23.90;52.40
25352;DHT22;13304;48.464;8.712;2022-08-05T04:53:12;24.00;52.50
25352;DHT22;13304;48.464;8.712;2022-08-05T04:55:39;24.00;52.50
25352;DHT22;13304;48.464;8.712;2022-08-05T04:58:06;24.10;52.90
25352;DHT22;13304;48.464;8.712;2022-08-05T05:00:33;24.10;53.10
25352;DHT22;13304;48.464;8.712;2022-08-05T05:03:00;24.20;53.30
25352;DHT22;13304;48.464;8.712;2022-08-05T05:05:26;24.30;53.50
25352;DHT22;13304;48.464;8.712;2022-08-05T05:07:53;24.30;53.40
25352;DHT22;13304;48.464;8.712;2022-08-05T05:10:18;24.50;53.30
25352;DHT22;13304;48.464;8.712;2022-08-05T05:12:44;24.50;53.30
25352;DHT22;13304;48.464;8.712;2022-08-05T05:15:10;24.60;53.40
25352;DHT22;13304;48.464;8.712;2022-08-05T05:17:40;24.70;53.30
25352;DHT22;13304;48.464;8.712;2022-08-05T05:20:09;24.80;53.60
25352;DHT22;13304;48.464;8.712;2022-08-05T05:22:35;24.90;53.70
25352;DHT22;13304;48.464;8.712;2022-08-05T05:25:01;24.90;53.60
25352;DHT22;13304;48.464;8.712;2022-08-05T05:27:28;25.00;53.50
25352;DHT22;13304;48.464;8.712;2022-08-05T05:29:54;25.10;53.50
25352;DHT22;13304;48.464;8.712;2022-08-05T05:32:20;25.20;53.20
25352;DHT22;13304;48.464;8.712;2022-08-05T05:34:46;25.30;53.00
25352;DHT22;13304;48.464;8.712;2022-08-05T05:37:12;25.30;52.80
25352;DHT22;13304;48.464;8.712;2022-08-05T05:39:39;25.40;52.80
25352;DHT22;13304;48.464;8.712;2022-08-05T05:42:05;25.50;52.70
25352;DHT22;13304;48.464;8.712;2022-08-05T05:44:31;25.60;52.60
25352;DHT22;13304;48.464;8.712;2022-08-05T05:46:57;25.60;52.50
25352;DHT22;13304;48.464;8.712;2022-08-05T05:49:23;25.70;52.40
25352;DHT22;13304;48.464;8.712;2022-08-05T05:51:49;25.80;52.30
25352;DHT22;13304;48.464;8.712;2022-08-05T05:54:15;25.80;52.40
25352;DHT22;13304;48.464;8.712;2022-08-05T05:56:40;25.90;52.30
25352;DHT22;13304;48.464;8.712;2022-08-05T05:59:06;25.90;52.40
25352;DHT22;13304;48.464;8.712;2022-08-05T06:01:34;26.00;52.60
25352;DHT22;13304;48.464;8.712;2022-08-05T06:04:00;26.00;52.70
25352;DHT22;13304;48.464;8.712;2022-08-05T06:06:26;26.00;52.90
25352;DHT22;13304;48.464;8.712;2022-08-05T06:08:51;26.10;53.10
25352;DHT22;13304;48.464;8.712;2022-08-05T06:11:17;26.10;53.10
25352;DHT22;13304;48.464;8.712;2022-08-05T06:13:43;26.10;53.20
25352;DHT22;13304;48.464;8.712;2022-08-05T06:16:09;26.10;53.30
25352;DHT22;13304;48.464;8.712;2022-08-05T06:18:35;26.20;53.50
25352;DHT22;13304;48.464;8.712;2022-08-05T06:21:03;26.30;53.50
25352;DHT22;13304;48.464;8.712;2022-08-05T06:23:29;26.30;54.20
25352;DHT22;13304;48.464;8.712;2022-08-05T06:25:56;26.30;53.50
25352;DHT22;13304;48.464;8.712;2022-08-05T06:28:22;26.50;53.50
25352;DHT22;13304;48.464;8.712;2022-08-05T06:30:48;26.50;53.60
25352;DHT22;13304;48.464;8.712;2022-08-05T06:33:13;26.50;53.50
25352;DHT22;13304;48.464;8.712;2022-08-05T06:35:39;26.60;53.30
25352;DHT22;13304;48.464;8.712;2022-08-05T06:38:05;26.70;53.30
25352;DHT22;13304;48.464;8.712;2022-08-05T06:40:31;26.70;53.20
25352;DHT22;13304;48.464;8.712;2022-08-05T06:42:57;26.80;53.00
25352;DHT22;13304;48.464;8.712;2022-08-05T06:45:22;26.80;52.80
25352;DHT22;13304;48.464;8.712;2022-08-05T06:47:48;26.80;52.70
25352;DHT22;13304;48.464;8.712;2022-08-05T06:50:14;26.80;52.90
25352;DHT22;13304;48.464;8.712;2022-08-05T06:52:40;26.90;53.10
25352;DHT22;13304;48.464;8.712;2022-08-05T06:55:06;27.00;53.00
25352;DHT22;13304;48.464;8.712;2022-08-05T06:57:32;27.00;52.60
25352;DHT22;13304;48.464;8.712;2022-08-05T06:59:58;27.10;52.40
25352;DHT22;13304;48.464;8.712;2022-08-05T07:02:23;27.10;52.10
25352;DHT22;13304;48.464;8.712;2022-08-05T07:04:49;27.20;52.20
25352;DHT22;13304;48.464;8.712;2022-08-05T07:07:15;27.20;52.10
25352;DHT22;13304;48.464;8.712;2022-08-05T07:09:41;27.20;51.90
25352;DHT22;13304;48.464;8.712;2022-08-05T07:12:07;27.20;52.50
25352;DHT22;13304;48.464;8.712;2022-08-05T07:14:33;27.30;51.70
25352;DHT22;13304;48.464;8.712;2022-08-05T07:17:17;27.30;51.20
25352;DHT22;13304;48.464;8.712;2022-08-05T07:19:43;27.30;50.70
25352;DHT22;13304;48.464;8.712;2022-08-05T07:22:09;27.30;50.40
25352;DHT22;13304;48.464;8.712;2022-08-05T07:24:35;27.40;49.80
25352;DHT22;13304;48.464;8.712;2022-08-05T07:27:00;27.40;49.80
25352;DHT22;13304;48.464;8.712;2022-08-05T07:29:26;27.40;49.50
25352;DHT22;13304;48.464;8.712;2022-08-05T07:31:52;27.40;49.00
25352;DHT22;13304;48.464;8.712;2022-08-05T07:34:18;27.40;49.10
25352;DHT22;13304;48.464;8.712;2022-08-05T07:36:43;27.50;49.10
25352;DHT22;13304;48.464;8.712;2022-08-05T07:39:09;27.50;48.50
25352;DHT22;13304;48.464;8.712;2022-08-05T07:41:35;27.50;48.50
25352;DHT22;13304;48.464;8.712;2022-08-05T07:44:02;27.50;48.40
25352;DHT22;13304;48.464;8.712;2022-08-05T07:46:29;27.60;48.40
25352;DHT22;13304;48.464;8.712;2022-08-05T07:48:57;27.60;48.20
25352;DHT22;13304;48.464;8.712;2022-08-05T07:51:23;27.60;48.20
25352;DHT22;13304;48.464;8.712;2022-08-05T07:53:49;27.70;47.90
25352;DHT22;13304;48.464;8.712;2022-08-05T07:56:15;27.70;47.80
25352;DHT22;13304;48.464;8.712;2022-08-05T07:58:41;27.70;47.10
25352;DHT22;13304;48.464;8.712;2022-08-05T08:01:07;27.80;47.60
25352;DHT22;13304;48.464;8.712;2022-08-05T08:03:33;27.80;47.50
25352;DHT22;13304;48.464;8.712;2022-08-05T08:05:58;27.90;47.40
25352;DHT22;13304;48.464;8.712;2022-08-05T08:08:24;27.90;46.90
25352;DHT22;13304;48.464;8.712;2022-08-05T08:10:50;28.00;46.70
25352;DHT22;13304;48.464;8.712;2022-08-05T08:13:16;28.10;46.20
25352;DHT22;13304;48.464;8.712;2022-08-05T08:15:41;28.10;45.60
25352;DHT22;13304;48.464;8.712;2022-08-05T08:18:07;28.10;45.70
25352;DHT22;13304;48.464;8.712;2022-08-05T08:20:33;28.20;45.80
25352;DHT22;13304;48.464;8.712;2022-08-05T08:22:59;28.20;45.80
25352;DHT22;13304;48.464;8.712;2022-08-05T08:25:26;28.20;45.90
25352;DHT22;13304;48.464;8.712;2022-08-05T08:27:53;28.30;45.60
25352;DHT22;13304;48.464;8.712;2022-08-05T08:30:19;28.30;45.50
25352;DHT22;13304;48.464;8.712;2022-08-05T08:32:45;28.30;45.90
25352;DHT22;13304;48.464;8.712;2022-08-05T08:35:11;28.30;45.60
25352;DHT22;13304;48.464;8.712;2022-08-05T08:37:37;28.30;45.50
25352;DHT22;13304;48.464;8.712;2022-08-05T08:40:04;28.40;46.30
25352;DHT22;13304;48.464;8.712;2022-08-05T08:42:30;28.40;46.00
25352;DHT22;13304;48.464;8.712;2022-08-05T08:44:58;28.40;45.30
25352;DHT22;13304;48.464;8.712;2022-08-05T08:47:26;28.40;45.20
25352;DHT22;13304;48.464;8.712;2022-08-05T08:49:54;28.40;45.90
25352;DHT22;13304;48.464;8.712;2022-08-05T08:52:29;28.40;46.30
25352;DHT22;13304;48.464;8.712;2022-08-05T08:54:55;28.30;46.10
25352;DHT22;13304;48.464;8.712;2022-08-05T08:57:22;28.40;46.40
25352;DHT22;13304;48.464;8.712;2022-08-05T08:59:49;28.40;46.60
25352;DHT22;13304;48.464;8.712;2022-08-05T09:02:16;28.40;46.70
25352;DHT22;13304;48.464;8.712;2022-08-05T09:04:44;28.40;46.70
25352;DHT22;13304;48.464;8.712;2022-08-05T09:07:10;28.40;46.40
25352;DHT22;13304;48.464;8.712;2022-08-05T09:09:36;28.50;46.20
25352;DHT22;13304;48.464;8.712;2022-08-05T09:12:03;28.50;46.30
25352;DHT22;13304;48.464;8.712;2022-08-05T09:14:33;28.60;45.80
25352;DHT22;13304;48.464;8.712;2022-08-05T09:16:59;28.60;46.20
25352;DHT22;13304;48.464;8.712;2022-08-05T09:19:25;28.60;46.20
25352;DHT22;13304;48.464;8.712;2022-08-05T09:21:51;28.60;46.20
25352;DHT22;13304;48.464;8.712;2022-08-05T09:24:16;28.70;46.20
25352;DHT22;13304;48.464;8.712;2022-08-05T09:26:46;28.70;45.60
25352;DHT22;13304;48.464;8.712;2022-08-05T09:29:14;28.80;45.60
25352;DHT22;13304;48.464;8.712;2022-08-05T09:31:40;28.80;46.20
25352;DHT22;13304;48.464;8.712;2022-08-05T09:34:10;28.90;46.00
25352;DHT22;13304;48.464;8.712;2022-08-05T09:39:11;28.90;45.50
25352;DHT22;13304;48.464;8.712;2022-08-05T09:41:56;29.00;45.50
25352;DHT22;13304;48.464;8.712;2022-08-05T09:44:46;29.10;45.30
25352;DHT22;13304;48.464;8.712;2022-08-05T09:47:15;29.10;44.80
25352;DHT22;13304;48.464;8.712;2022-08-05T09:49:52;29.20;44.60
25352;DHT22;13304;48.464;8.712;2022-08-05T09:52:33;29.30;44.70
25352;DHT22;13304;48.464;8.712;2022-08-05T09:55:09;29.30;45.00
25352;DHT22;13304;48.464;8.712;2022-08-05T10:00:19;29.40;44.20
25352;DHT22;13304;48.464;8.712;2022-08-05T10:02:46;29.30;44.00
25352;DHT22;13304;48.464;8.712;2022-08-05T10:05:17;29.40;43.60
25352;DHT22;13304;48.464;8.712;2022-08-05T10:10:09;29.50;43.90
25352;DHT22;13304;48.464;8.712;2022-08-05T10:12:42;29.50;43.80
25352;DHT22;13304;48.464;8.712;2022-08-05T10:15:21;29.50;43.90
25352;DHT22;13304;48.464;8.712;2022-08-05T10:18:09;29.50;43.90
25352;DHT22;13304;48.464;8.712;2022-08-05T10:20:56;29.50;44.00
25352;DHT22;13304;48.464;8.712;2022-08-05T10:23:31;29.60;44.00
25352;DHT22;13304;48.464;8.712;2022-08-05T10:26:04;29.70;44.30
25352;DHT22;13304;48.464;8.712;2022-08-05T10:28:30;29.70;43.80
25352;DHT22;13304;48.464;8.712;2022-08-05T10:30:59;29.80;44.00
25352;DHT22;13304;48.464;8.712;2022-08-05T10:33:26;29.80;43.40
25352;DHT22;13304;48.464;8.712;2022-08-05T10:35:53;29.70;43.70
25352;DHT22;13304;48.464;8.712;2022-08-05T10:38:20;29.90;44.30
25352;DHT22;13304;48.464;8.712;2022-08-05T10:46:11;30.00;43.30
25352;DHT22;13304;48.464;8.712;2022-08-05T10:48:43;30.00;43.40
25352;DHT22;13304;48.464;8.712;2022-08-05T10:51:14;30.00;43.20
25352;DHT22;13304;48.464;8.712;2022-08-05T10:53:55;30.10;43.10
25352;DHT22;13304;48.464;8.712;2022-08-05T10:56:22;30.10;43.00
25352;DHT22;13304;48.464;8.712;2022-08-05T11:01:38;30.20;43.10
25352;DHT22;13304;48.464;8.712;2022-08-05T11:04:13;30.20;42.70
25352;DHT22;13304;48.464;8.712;2022-08-05T11:09:24;30.20;42.80
25352;DHT22;13304;48.464;8.712;2022-08-05T11:11:51;30.30;42.80
25352;DHT22;13304;48.464;8.712;2022-08-05T11:14:30;30.30;43.50
25352;DHT22;13304;48.464;8.712;2022-08-05T11:19:52;30.30;42.90
25352;DHT22;13304;48.464;8.712;2022-08-05T11:25:37;30.40;42.20
25352;DHT22;13304;48.464;8.712;2022-08-05T11:33:30;30.50;41.30
25352;DHT22;13304;48.464;8.712;2022-08-05T11:36:01;30.50;42.40
25352;DHT22;13304;48.464;8.712;2022-08-05T11:41:21;30.60;42.00
25352;DHT22;13304;48.464;8.712;2022-08-05T11:48:53;30.60;41.60
25352;DHT22;13304;48.464;8.712;2022-08-05T11:51:19;30.70;41.70
25352;DHT22;13304;48.464;8.712;2022-08-05T11:53:46;30.80;41.60
25352;DHT22;13304;48.464;8.712;2022-08-05T11:56:12;30.80;41.30
25352;DHT22;13304;48.464;8.712;2022-08-05T11:58:40;30.90;41.60
25352;DHT22;13304;48.464;8.712;2022-08-05T12:01:14;30.90;41.70
25352;DHT22;13304;48.464;8.712;2022-08-05T12:03:54;31.00;41.70
25352;DHT22;13304;48.464;8.712;2022-08-05T12:06:26;31.00;41.70
25352;DHT22;13304;48.464;8.712;2022-08-05T12:08:57;31.10;41.00
25352;DHT22;13304;48.464;8.712;2022-08-05T12:11:29;31.10;40.40
25352;DHT22;13304;48.464;8.712;2022-08-05T12:16:25;31.20;40.30
25352;DHT22;13304;48.464;8.712;2022-08-05T12:18:51;31.10;40.30
25352;DHT22;13304;48.464;8.712;2022-08-05T12:21:20;31.20;40.50
25352;DHT22;13304;48.464;8.712;2022-08-05T12:26:33;31.20;39.40
25352;DHT22;13304;48.464;8.712;2022-08-05T12:29:00;31.30;41.00
25352;DHT22;13304;48.464;8.712;2022-08-05T12:31:26;31.30;41.20
25352;DHT22;13304;48.464;8.712;2022-08-05T12:33:52;31.40;40.90
25352;DHT22;13304;48.464;8.712;2022-08-05T12:36:20;31.40;40.80
25352;DHT22;13304;48.464;8.712;2022-08-05T12:38:46;31.40;41.10
25352;DHT22;13304;48.464;8.712;2022-08-05T12:41:13;31.50;41.10
25352;DHT22;13304;48.464;8.712;2022-08-05T12:44:03;31.50;41.00
25352;DHT22;13304;48.464;8.712;2022-08-05T12:46:32;31.50;39.40
25352;DHT22;13304;48.464;8.712;2022-08-05T12:49:13;31.60;39.90
25352;DHT22;13304;48.464;8.712;2022-08-05T12:54:28;31.70;39.50
25352;DHT22;13304;48.464;8.712;2022-08-05T12:56:59;31.60;38.60
25352;DHT22;13304;48.464;8.712;2022-08-05T12:59:30;31.70;38.70
25352;DHT22;13304;48.464;8.712;2022-08-05T13:02:06;31.70;39.00
25352;DHT22;13304;48.464;8.712;2022-08-05T13:04:34;31.80;39.40
25352;DHT22;13304;48.464;8.712;2022-08-05T13:07:05;31.80;38.70
25352;DHT22;13304;48.464;8.712;2022-08-05T13:09:32;31.90;39.60
25352;DHT22;13304;48.464;8.712;2022-08-05T13:12:10;31.90;39.70
25352;DHT22;13304;48.464;8.712;2022-08-05T13:17:20;32.00;38.60
25352;DHT22;13304;48.464;8.712;2022-08-05T13:20:09;32.00;38.70
25352;DHT22;13304;48.464;8.712;2022-08-05T13:22:38;32.10;39.00
25352;DHT22;13304;48.464;8.712;2022-08-05T13:25:06;32.30;38.90
25352;DHT22;13304;48.464;8.712;2022-08-05T13:27:36;32.20;38.50
25352;DHT22;13304;48.464;8.712;2022-08-05T13:30:04;32.20;37.70
25352;DHT22;13304;48.464;8.712;2022-08-05T13:32:31;32.40;38.60
25352;DHT22;13304;48.464;8.712;2022-08-05T13:34:57;32.40;38.10
25352;DHT22;13304;48.464;8.712;2022-08-05T13:37:23;32.50;38.80
25352;DHT22;13304;48.464;8.712;2022-08-05T13:39:50;32.60;38.80
25352;DHT22;13304;48.464;8.712;2022-08-05T13:42:21;32.60;38.60
25352;DHT22;13304;48.464;8.712;2022-08-05T13:44:53;32.60;38.00
25352;DHT22;13304;48.464;8.712;2022-08-05T13:47:19;32.60;37.50
25352;DHT22;13304;48.464;8.712;2022-08-05T13:49:46;32.70;37.50
25352;DHT22;13304;48.464;8.712;2022-08-05T13:52:20;32.70;37.40
25352;DHT22;13304;48.464;8.712;2022-08-05T13:54:46;32.60;37.90
25352;DHT22;13304;48.464;8.712;2022-08-05T13:57:12;32.70;37.90
25352;DHT22;13304;48.464;8.712;2022-08-05T13:59:40;32.60;38.10
25352;DHT22;13304;48.464;8.712;2022-08-05T14:02:08;32.60;38.90
25352;DHT22;13304;48.464;8.712;2022-08-05T14:04:45;32.50;38.30
25352;DHT22;13304;48.464;8.712;2022-08-05T14:07:33;32.40;38.30
25352;DHT22;13304;48.464;8.712;2022-08-05T14:09:59;32.30;38.20
25352;DHT22;13304;48.464;8.712;2022-08-05T14:12:25;32.30;38.80
25352;DHT22;13304;48.464;8.712;2022-08-05T14:14:51;32.20;38.80
25352;DHT22;13304;48.464;8.712;2022-08-05T14:17:17;32.10;39.10
25352;DHT22;13304;48.464;8.712;2022-08-05T14:19:44;32.00;41.80
25352;DHT22;13304;48.464;8.712;2022-08-05T14:22:10;31.80;43.60
25352;DHT22;13304;48.464;8.712;2022-08-05T14:24:36;31.70;44.40
25352;DHT22;13304;48.464;8.712;2022-08-05T14:27:03;31.50;44.60
25352;DHT22;13304;48.464;8.712;2022-08-05T14:29:28;31.20;44.50
25352;DHT22;13304;48.464;8.712;2022-08-05T14:31:54;31.10;43.80
25352;DHT22;13304;48.464;8.712;2022-08-05T14:34:20;31.00;43.90
25352;DHT22;13304;48.464;8.712;2022-08-05T14:36:46;30.80;44.30
25352;DHT22;13304;48.464;8.712;2022-08-05T14:39:12;30.80;45.60
25352;DHT22;13304;48.464;8.712;2022-08-05T14:41:38;30.60;47.10
25352;DHT22;13304;48.464;8.712;2022-08-05T14:44:04;30.60;47.00
25352;DHT22;13304;48.464;8.712;2022-08-05T14:46:30;30.50;47.70
25352;DHT22;13304;48.464;8.712;2022-08-05T14:48:57;30.40;47.30
25352;DHT22;13304;48.464;8.712;2022-08-05T14:51:23;30.30;47.70
25352;DHT22;13304;48.464;8.712;2022-08-05T14:53:49;30.30;47.40
25352;DHT22;13304;48.464;8.712;2022-08-05T14:56:15;30.20;47.80
25352;DHT22;13304;48.464;8.712;2022-08-05T14:58:41;30.10;48.20
25352;DHT22;13304;48.464;8.712;2022-08-05T15:01:07;30.00;48.40
25352;DHT22;13304;48.464;8.712;2022-08-05T15:03:33;30.00;48.60
25352;DHT22;13304;48.464;8.712;2022-08-05T15:05:59;29.80;48.50
25352;DHT22;13304;48.464;8.712;2022-08-05T15:08:25;29.70;49.10
25352;DHT22;13304;48.464;8.712;2022-08-05T15:10:51;29.70;49.10
25352;DHT22;13304;48.464;8.712;2022-08-05T15:13:17;29.60;49.30
25352;DHT22;13304;48.464;8.712;2022-08-05T15:15:43;29.60;50.00
25352;DHT22;13304;48.464;8.712;2022-08-05T15:18:09;29.60;50.20
25352;DHT22;13304;48.464;8.712;2022-08-05T15:20:35;29.50;50.60
25352;DHT22;13304;48.464;8.712;2022-08-05T15:23:09;29.60;50.90
25352;DHT22;13304;48.464;8.712;2022-08-05T15:25:36;29.60;50.20
25352;DHT22;13304;48.464;8.712;2022-08-05T15:28:02;29.60;50.00
25352;DHT22;13304;48.464;8.712;2022-08-05T15:30:28;29.80;50.00
25352;DHT22;13304;48.464;8.712;2022-08-05T15:32:57;29.80;49.10
25352;DHT22;13304;48.464;8.712;2022-08-05T15:35:22;30.00;48.60
25352;DHT22;13304;48.464;8.712;2022-08-05T15:37:48;30.10;48.30
25352;DHT22;13304;48.464;8.712;2022-08-05T15:40:14;30.30;48.20
25352;DHT22;13304;48.464;8.712;2022-08-05T15:42:40;30.40;47.80
25352;DHT22;13304;48.464;8.712;2022-08-05T15:45:06;30.40;47.00
25352;DHT22;13304;48.464;8.712;2022-08-05T15:47:34;30.60;46.40
25352;DHT22;13304;48.464;8.712;2022-08-05T15:50:00;30.70;46.10
25352;DHT22;13304;48.464;8.712;2022-08-05T15:52:26;30.70;45.70
25352;DHT22;13304;48.464;8.712;2022-08-05T15:54:52;30.80;45.20
25352;DHT22;13304;48.464;8.712;2022-08-05T15:57:18;30.80;45.00
25352;DHT22;13304;48.464;8.712;2022-08-05T15:59:45;30.80;44.90
25352;DHT22;13304;48.464;8.712;2022-08-05T16:02:10;30.80;44.60
25352;DHT22;13304;48.464;8.712;2022-08-05T16:04:36;30.80;44.40
25352;DHT22;13304;48.464;8.712;2022-08-05T16:07:02;30.80;44.20
25352;DHT22;13304;48.464;8.712;2022-08-05T16:09:28;30.80;44.20
25352;DHT22;13304;48.464;8.712;2022-08-05T16:11:54;30.80;44.20
25352;DHT22;13304;48.464;8.712;2022-08-05T16:14:21;30.80;44.10
25352;DHT22;13304;48.464;8.712;2022-08-05T16:16:46;30.80;44.10
25352;DHT22;13304;48.464;8.712;2022-08-05T16:19:12;30.80;44.20
25352;DHT22;13304;48.464;8.712;2022-08-05T16:21:38;30.80;44.40
25352;DHT22;13304;48.464;8.712;2022-08-05T16:24:04;30.80;44.70
25352;DHT22;13304;48.464;8.712;2022-08-05T16:26:30;30.80;45.30
25352;DHT22;13304;48.464;8.712;2022-08-05T16:28:56;30.80;45.80
25352;DHT22;13304;48.464;8.712;2022-08-05T16:31:22;30.80;46.00
25352;DHT22;13304;48.464;8.712;2022-08-05T16:33:49;30.80;46.50